createdAt,value
2023-02-28T00:00:48.306Z,4.23
2023-02-28T00:03:14.732Z,4.60
2023-02-28T00:05:41.975Z,5.70
2023-02-28T00:08:08.854Z,3.70
2023-02-28T00:10:35.625Z,4.43
2023-02-28T00:13:05.495Z,5.03
2023-02-28T00:15:32.675Z,4.70
2023-02-28T00:17:59.071Z,4.67
2023-02-28T00:20:25.521Z,4.60
2023-02-28T00:22:53.834Z,6.33
2023-02-28T00:25:22.118Z,5.17
2023-02-28T00:27:49.361Z,7.40
2023-02-28T00:30:19.233Z,4.20
2023-02-28T00:32:46.384Z,5.17
2023-02-28T00:35:16.167Z,4.87
2023-02-28T00:37:42.872Z,5.77
2023-02-28T00:40:11.451Z,3.97
2023-02-28T00:42:37.856Z,4.83
2023-02-28T00:45:05.285Z,7.23
2023-02-28T00:47:33.146Z,7.10
2023-02-28T00:50:00.038Z,5.60
2023-02-28T00:52:26.604Z,4.40
2023-02-28T00:54:54.627Z,4.53
2023-02-28T00:57:21.245Z,4.77
2023-02-28T00:59:48.770Z,6.73
2023-02-28T01:02:15.202Z,5.17
2023-02-28T01:04:42.312Z,4.70
2023-02-28T01:07:09.872Z,4.47
2023-02-28T01:09:36.452Z,5.93
2023-02-28T01:12:03.299Z,4.50
2023-02-28T01:14:30.041Z,4.20
2023-02-28T01:16:56.840Z,7.27
2023-02-28T01:19:25.564Z,5.80
2023-02-28T01:21:52.634Z,4.47
2023-02-28T01:24:19.657Z,4.77
2023-02-28T01:26:46.115Z,5.07
2023-02-28T01:29:12.575Z,4.50
2023-02-28T01:31:39.261Z,5.30
2023-02-28T01:34:08.284Z,5.40
2023-02-28T01:36:34.676Z,5.80
2023-02-28T01:39:01.705Z,5.20
2023-02-28T01:41:31.390Z,5.23
2023-02-28T01:44:03.836Z,5.57
2023-02-28T01:46:31.156Z,4.57
2023-02-28T01:49:04.715Z,4.53
2023-02-28T01:51:38.145Z,5.43
2023-02-28T01:54:13.717Z,5.37
2023-02-28T01:56:44.482Z,4.67
2023-02-28T01:59:13.226Z,5.03
2023-02-28T02:01:39.837Z,8.30
2023-02-28T02:04:06.460Z,5.13
2023-02-28T02:06:38.880Z,5.00
2023-02-28T02:09:09.108Z,5.43
2023-02-28T02:11:36.940Z,5.40
2023-02-28T02:14:37.051Z,5.67
2023-02-28T02:17:19.096Z,5.70
2023-02-28T02:20:21.318Z,7.37
2023-02-28T02:23:21.004Z,6.10
2023-02-28T02:25:54.606Z,5.87
2023-02-28T02:29:00.251Z,5.73
2023-02-28T02:31:38.230Z,5.70
2023-02-28T02:34:27.684Z,6.10
2023-02-28T02:37:01.598Z,7.47
2023-02-28T02:39:34.056Z,5.70
2023-02-28T02:42:02.310Z,6.13
2023-02-28T02:44:36.257Z,7.53
2023-02-28T02:47:08.841Z,6.90
2023-02-28T02:49:39.429Z,5.77
2023-02-28T02:52:09.332Z,6.10
2023-02-28T02:54:41.368Z,6.43
2023-02-28T02:57:12.247Z,6.20
2023-02-28T02:59:40.637Z,7.10
2023-02-28T03:02:09.335Z,6.57
2023-02-28T03:04:42.849Z,6.10
2023-02-28T03:07:09.278Z,6.17
2023-02-28T03:09:36.102Z,6.07
2023-02-28T03:12:04.170Z,6.27
2023-02-28T03:14:48.063Z,6.53
2023-02-28T03:17:41.407Z,6.37
2023-02-28T03:20:20.000Z,6.73
2023-02-28T03:23:00.056Z,6.57
2023-02-28T03:25:34.009Z,6.77
2023-02-28T03:28:09.075Z,6.70
2023-02-28T03:30:45.633Z,8.07
2023-02-28T03:33:15.961Z,7.13
2023-02-28T03:35:48.451Z,8.33
2023-02-28T03:38:19.409Z,6.60
2023-02-28T03:40:50.972Z,6.87
2023-02-28T03:43:23.608Z,7.90
2023-02-28T03:45:52.166Z,7.87
2023-02-28T03:48:22.928Z,8.43
2023-02-28T03:50:54.616Z,7.03
2023-02-28T03:53:27.922Z,22.30
2023-02-28T03:55:59.821Z,8.10
2023-02-28T03:58:32.753Z,9.77
2023-02-28T04:01:08.230Z,11.53
2023-02-28T04:03:37.793Z,9.43
2023-02-28T04:06:07.492Z,18.93
2023-02-28T04:08:34.186Z,14.00
2023-02-28T04:11:06.159Z,8.40
2023-02-28T04:13:32.698Z,10.20
2023-02-28T04:15:59.118Z,11.40
2023-02-28T04:18:25.593Z,11.60
2023-02-28T04:20:52.015Z,10.53
2023-02-28T04:23:19.068Z,8.47
2023-02-28T04:25:45.408Z,8.97
2023-02-28T04:28:11.775Z,8.57
2023-02-28T04:30:38.977Z,8.90
2023-02-28T04:33:05.349Z,9.43
2023-02-28T04:35:31.767Z,8.13
2023-02-28T04:37:58.149Z,9.40
2023-02-28T04:40:25.259Z,9.93
2023-02-28T04:42:51.612Z,8.87
2023-02-28T04:45:17.996Z,10.23
2023-02-28T04:47:44.619Z,10.10
2023-02-28T04:50:11.389Z,9.53
2023-02-28T04:52:37.767Z,9.80
2023-02-28T04:55:05.784Z,10.00
2023-02-28T04:57:32.826Z,10.37
2023-02-28T04:59:59.185Z,10.50
2023-02-28T05:02:25.625Z,11.53
2023-02-28T05:04:52.076Z,10.03
2023-02-28T05:07:18.443Z,10.40
2023-02-28T05:09:44.840Z,11.47
2023-02-28T05:12:11.214Z,10.40
2023-02-28T05:14:38.246Z,10.70
2023-02-28T05:17:04.633Z,10.40
2023-02-28T05:19:31.013Z,10.67
2023-02-28T05:21:57.409Z,11.40
2023-02-28T05:24:23.962Z,11.77
2023-02-28T05:26:51.941Z,10.80
2023-02-28T05:29:18.314Z,11.80
2023-02-28T05:31:45.567Z,13.13
2023-02-28T05:34:12.801Z,12.80
2023-02-28T05:36:39.783Z,11.97
2023-02-28T05:39:07.582Z,13.40
2023-02-28T05:41:34.009Z,12.07
2023-02-28T05:44:01.625Z,12.37
2023-02-28T05:46:28.227Z,13.50
2023-02-28T05:48:56.122Z,13.57
2023-02-28T05:51:22.580Z,13.53
2023-02-28T05:53:49.697Z,13.70
2023-02-28T05:56:16.364Z,13.30
2023-02-28T05:58:42.777Z,13.43
2023-02-28T06:01:24.518Z,13.67
2023-02-28T06:03:51.150Z,14.07
2023-02-28T06:06:18.220Z,13.57
2023-02-28T06:08:44.915Z,14.50
2023-02-28T06:11:11.339Z,13.90
2023-02-28T06:13:37.711Z,13.60
2023-02-28T06:16:04.411Z,14.40
2023-02-28T06:18:31.789Z,14.97
2023-02-28T06:20:58.562Z,14.53
2023-02-28T06:23:25.682Z,15.03
2023-02-28T06:25:53.217Z,16.50
2023-02-28T06:28:19.671Z,15.77
2023-02-28T06:30:46.624Z,15.53
2023-02-28T06:33:13.066Z,14.80
2023-02-28T06:35:39.570Z,15.90
2023-02-28T06:38:05.966Z,14.93
2023-02-28T06:40:36.331Z,14.90
2023-02-28T06:43:03.031Z,17.00
2023-02-28T06:45:29.462Z,15.60
2023-02-28T06:47:55.915Z,15.37
2023-02-28T06:50:22.349Z,15.33
2023-02-28T06:52:48.890Z,14.93
2023-02-28T06:55:15.404Z,15.23
2023-02-28T06:57:42.478Z,14.50
2023-02-28T07:00:11.429Z,14.70
2023-02-28T07:02:38.350Z,14.97
2023-02-28T07:05:05.224Z,16.03
2023-02-28T07:07:32.556Z,15.77
2023-02-28T07:09:58.968Z,15.20
2023-02-28T07:12:25.400Z,15.90
2023-02-28T07:14:52.407Z,15.43
2023-02-28T07:17:18.808Z,16.03
2023-02-28T07:19:45.273Z,15.43
2023-02-28T07:22:11.747Z,15.50
2023-02-28T07:24:38.444Z,15.10
2023-02-28T07:27:05.214Z,16.27
2023-02-28T07:29:31.909Z,13.83
2023-02-28T07:31:58.964Z,14.40
2023-02-28T07:34:26.146Z,13.27
2023-02-28T07:36:54.095Z,11.50
2023-02-28T07:39:21.018Z,12.73
2023-02-28T07:41:47.393Z,10.00
2023-02-28T07:44:14.252Z,10.27
2023-02-28T07:46:40.691Z,9.83
2023-02-28T07:49:07.834Z,11.27
2023-02-28T07:51:34.299Z,12.00
2023-02-28T07:54:00.719Z,11.13
2023-02-28T07:56:27.504Z,14.07
2023-02-28T07:58:54.215Z,13.93
2023-02-28T08:01:20.842Z,11.93
2023-02-28T08:03:47.247Z,12.00
2023-02-28T08:06:19.018Z,13.37
2023-02-28T08:08:45.554Z,11.50
2023-02-28T08:11:12.142Z,10.90
2023-02-28T08:13:38.600Z,12.30
2023-02-28T08:16:05.573Z,12.33
2023-02-28T08:18:33.718Z,13.20
2023-02-28T08:21:00.401Z,13.17
2023-02-28T08:23:27.424Z,13.87
2023-02-28T08:25:55.298Z,16.00
2023-02-28T08:28:21.693Z,13.93
2023-02-28T08:30:50.802Z,13.67
2023-02-28T08:33:17.251Z,13.37
2023-02-28T08:35:43.755Z,14.10
2023-02-28T08:38:10.218Z,15.20
2023-02-28T08:40:37.281Z,15.13
2023-02-28T08:43:04.068Z,14.13
2023-02-28T08:45:30.846Z,13.80
2023-02-28T08:47:57.280Z,13.67
2023-02-28T08:50:23.664Z,14.27
2023-02-28T08:52:50.138Z,14.27
2023-02-28T08:55:16.642Z,14.40
2023-02-28T08:57:43.868Z,17.17
2023-02-28T09:00:13.729Z,14.97
2023-02-28T09:02:40.448Z,13.73
2023-02-28T09:05:08.729Z,19.07
2023-02-28T09:07:35.136Z,15.80
2023-02-28T09:10:01.542Z,19.63
2023-02-28T09:12:32.400Z,15.70
2023-02-28T09:14:59.456Z,14.10
2023-02-28T09:17:30.438Z,17.13
2023-02-28T09:19:57.900Z,14.03
2023-02-28T09:22:24.376Z,15.00
2023-02-28T09:24:50.759Z,15.97
2023-02-28T09:27:17.238Z,15.33
2023-02-28T09:29:43.692Z,15.37
2023-02-28T09:32:10.794Z,14.33
2023-02-28T09:34:38.567Z,13.90
2023-02-28T09:37:05.301Z,15.27
2023-02-28T09:39:32.152Z,15.23
2023-02-28T09:41:59.826Z,17.07
2023-02-28T09:44:32.417Z,16.97
2023-02-28T09:47:05.797Z,15.53
2023-02-28T09:49:40.751Z,14.53
2023-02-28T09:52:11.194Z,16.33
2023-02-28T09:54:38.973Z,16.90
2023-02-28T09:57:15.804Z,15.50
2023-02-28T10:00:04.965Z,17.97
2023-02-28T10:02:53.835Z,14.13
2023-02-28T10:05:23.564Z,14.20
2023-02-28T10:08:01.951Z,14.33
2023-02-28T10:10:33.719Z,14.07
2023-02-28T10:13:05.657Z,13.80
2023-02-28T10:15:34.930Z,13.17
2023-02-28T10:18:09.164Z,13.50
2023-02-28T10:20:40.669Z,14.87
2023-02-28T10:23:14.852Z,13.10
2023-02-28T10:25:43.366Z,14.07
2023-02-28T10:28:12.641Z,16.57
2023-02-28T10:30:43.127Z,13.90
2023-02-28T10:33:20.335Z,15.83
2023-02-28T10:35:47.531Z,16.70
2023-02-28T10:38:18.546Z,14.40
2023-02-28T10:40:45.245Z,16.87
2023-02-28T10:43:21.490Z,15.33
2023-02-28T10:46:03.150Z,14.30
2023-02-28T10:48:38.607Z,14.77
2023-02-28T10:51:07.614Z,14.00
2023-02-28T10:53:52.572Z,15.17
2023-02-28T10:56:27.855Z,13.97
2023-02-28T10:58:56.567Z,13.37
2023-02-28T11:01:25.169Z,16.20
2023-02-28T11:03:52.552Z,15.80
2023-02-28T11:06:22.098Z,13.97
2023-02-28T11:08:51.608Z,14.03
2023-02-28T11:11:19.237Z,14.33
2023-02-28T11:13:47.748Z,13.43
2023-02-28T11:16:15.985Z,14.03
2023-02-28T11:18:48.610Z,15.50
2023-02-28T11:21:27.607Z,12.03
2023-02-28T11:24:02.775Z,14.83
2023-02-28T11:26:42.379Z,13.90
2023-02-28T11:29:21.203Z,13.40
2023-02-28T11:32:13.971Z,14.20
2023-02-28T11:34:47.636Z,14.13
2023-02-28T11:37:21.755Z,13.73
2023-02-28T11:39:51.150Z,13.17
2023-02-28T11:42:39.522Z,13.97
2023-02-28T11:45:20.038Z,14.17
2023-02-28T11:47:52.715Z,15.93
2023-02-28T11:50:40.414Z,14.87
2023-02-28T11:53:17.356Z,14.53
2023-02-28T11:55:48.416Z,13.57
2023-02-28T11:58:31.632Z,17.40
2023-02-28T12:01:15.943Z,16.90
2023-02-28T12:03:52.733Z,15.13
2023-02-28T12:06:26.499Z,14.50
2023-02-28T12:09:03.921Z,14.60
2023-02-28T12:11:41.307Z,15.33
2023-02-28T12:14:30.820Z,15.47
2023-02-28T12:17:07.208Z,15.00
2023-02-28T12:19:44.766Z,14.43
2023-02-28T12:22:30.556Z,17.70
2023-02-28T12:25:41.188Z,14.83
2023-02-28T12:28:12.505Z,16.47
2023-02-28T12:30:48.008Z,15.20
2023-02-28T12:33:18.284Z,15.33
2023-02-28T12:35:50.500Z,15.67
2023-02-28T12:38:21.800Z,14.90
2023-02-28T12:41:00.904Z,13.90
2023-02-28T12:43:34.842Z,14.30
2023-02-28T12:46:05.087Z,16.77
2023-02-28T12:48:41.222Z,15.30
2023-02-28T12:51:11.117Z,14.47
2023-02-28T12:53:53.578Z,14.03
2023-02-28T12:56:34.490Z,14.83
2023-02-28T12:59:11.167Z,18.73
2023-02-28T13:01:51.312Z,16.70
2023-02-28T13:04:44.752Z,14.00
2023-02-28T13:07:42.986Z,13.93
2023-02-28T13:10:10.687Z,12.90
2023-02-28T13:12:48.511Z,13.37
2023-02-28T13:15:21.634Z,13.33
2023-02-28T13:17:54.097Z,12.83
2023-02-28T13:20:22.417Z,17.00
2023-02-28T13:22:51.145Z,14.97
2023-02-28T13:25:51.590Z,12.97
2023-02-28T13:29:06.061Z,13.90
2023-02-28T13:31:34.484Z,12.27
2023-02-28T13:34:14.444Z,12.33
2023-02-28T13:36:41.108Z,13.90
2023-02-28T13:39:40.625Z,14.20
2023-02-28T13:42:34.559Z,16.53
2023-02-28T13:45:26.135Z,13.63
2023-02-28T13:47:55.544Z,14.43
2023-02-28T13:50:27.895Z,13.13
2023-02-28T13:53:15.214Z,13.30
2023-02-28T13:55:47.052Z,13.43
2023-02-28T13:58:31.995Z,13.93
2023-02-28T14:01:17.420Z,13.87
2023-02-28T14:04:17.727Z,13.27
2023-02-28T14:06:49.407Z,13.73
2023-02-28T14:09:27.791Z,13.93
2023-02-28T14:11:54.922Z,14.20
2023-02-28T14:14:56.493Z,13.57
2023-02-28T14:17:23.549Z,13.33
2023-02-28T14:19:53.386Z,12.93
2023-02-28T14:22:44.579Z,13.20
2023-02-28T14:25:21.971Z,12.57
2023-02-28T14:27:54.369Z,13.30
2023-02-28T14:30:41.224Z,13.53
2023-02-28T14:33:35.043Z,13.97
2023-02-28T14:36:08.187Z,12.80
2023-02-28T14:38:41.497Z,13.57
2023-02-28T14:41:18.819Z,13.80
2023-02-28T14:43:50.787Z,13.17
2023-02-28T14:46:19.088Z,13.57
2023-02-28T14:48:46.540Z,13.83
2023-02-28T14:51:22.911Z,14.33
2023-02-28T14:53:54.216Z,13.93
2023-02-28T14:56:24.392Z,12.73
2023-02-28T14:58:56.002Z,14.43
2023-02-28T15:01:24.328Z,13.67
2023-02-28T15:03:59.633Z,12.50
2023-02-28T15:06:27.537Z,12.37
2023-02-28T15:09:14.304Z,13.67
2023-02-28T15:11:41.065Z,11.87
2023-02-28T15:14:08.218Z,12.53
2023-02-28T15:16:38.893Z,12.10
2023-02-28T15:19:13.560Z,12.57
2023-02-28T15:21:44.646Z,12.00
2023-02-28T15:24:23.859Z,11.90
2023-02-28T15:26:54.579Z,13.10
2023-02-28T15:29:22.998Z,13.10
2023-02-28T15:31:57.381Z,13.87
2023-02-28T15:34:36.975Z,13.87
2023-02-28T15:37:27.337Z,13.90
2023-02-28T15:39:56.927Z,11.33
2023-02-28T15:42:28.240Z,12.53
2023-02-28T15:44:54.703Z,12.27
2023-02-28T15:47:26.751Z,11.93
2023-02-28T15:49:55.200Z,12.77
2023-02-28T15:52:27.161Z,14.87
2023-02-28T15:54:54.494Z,11.73
2023-02-28T15:57:24.652Z,13.87
2023-02-28T15:59:54.812Z,12.90
2023-02-28T16:02:23.021Z,11.73
2023-02-28T16:04:58.234Z,15.67
2023-02-28T16:07:24.944Z,14.87
2023-02-28T16:09:51.645Z,14.53
2023-02-28T16:12:19.955Z,15.50
2023-02-28T16:14:48.028Z,11.33
2023-02-28T16:17:20.630Z,11.73
2023-02-28T16:19:47.611Z,12.23
2023-02-28T16:22:14.116Z,14.30
2023-02-28T16:24:40.652Z,14.90
2023-02-28T16:27:07.269Z,15.67
2023-02-28T16:29:36.849Z,12.47
2023-02-28T16:32:05.646Z,13.83
2023-02-28T16:34:32.380Z,15.90
2023-02-28T16:36:59.292Z,13.17
2023-02-28T16:39:25.802Z,13.20
2023-02-28T16:41:52.690Z,13.73
2023-02-28T16:44:27.614Z,17.23
2023-02-28T16:46:55.120Z,14.20
2023-02-28T16:49:21.654Z,17.40
2023-02-28T16:51:48.217Z,14.37
2023-02-28T16:54:14.770Z,14.20
2023-02-28T16:56:45.053Z,14.30
2023-02-28T16:59:12.684Z,19.40
2023-02-28T17:01:40.003Z,17.03
2023-02-28T17:04:07.236Z,17.17
2023-02-28T17:06:33.820Z,17.33
2023-02-28T17:09:00.645Z,24.43
2023-02-28T17:11:27.481Z,14.90
2023-02-28T17:13:54.418Z,17.30
2023-02-28T17:16:26.012Z,15.10
2023-02-28T17:18:53.940Z,17.33
2023-02-28T17:21:21.000Z,18.00
2023-02-28T17:23:47.491Z,17.30
2023-02-28T17:26:15.632Z,17.27
2023-02-28T17:28:42.249Z,20.80
2023-02-28T17:31:09.231Z,17.67
2023-02-28T17:33:35.936Z,17.30
2023-02-28T17:36:02.401Z,18.60
2023-02-28T17:38:29.717Z,18.03
2023-02-28T17:40:57.544Z,19.20
2023-02-28T17:43:24.284Z,19.23
2023-02-28T17:45:51.328Z,20.23
2023-02-28T17:48:17.834Z,18.57
2023-02-28T17:50:44.396Z,20.70
2023-02-28T17:53:10.994Z,22.07
2023-02-28T17:55:38.984Z,18.43
2023-02-28T17:58:05.458Z,23.00
2023-02-28T18:00:33.693Z,20.50
2023-02-28T18:03:00.542Z,22.30
2023-02-28T18:05:26.970Z,20.40
2023-02-28T18:07:53.407Z,19.17
2023-02-28T18:10:20.814Z,21.27
2023-02-28T18:12:49.155Z,25.00
2023-02-28T18:15:16.169Z,24.43
2023-02-28T18:17:42.621Z,18.90
2023-02-28T18:20:10.543Z,26.87
2023-02-28T18:22:38.070Z,19.73
2023-02-28T18:25:05.557Z,19.23
2023-02-28T18:27:32.023Z,19.07
2023-02-28T18:29:59.142Z,19.53
2023-02-28T18:32:25.772Z,17.63
2023-02-28T18:34:52.633Z,18.50
2023-02-28T18:37:20.087Z,17.70
2023-02-28T18:39:46.713Z,19.47
2023-02-28T18:42:13.413Z,20.03
2023-02-28T18:44:39.826Z,17.97
2023-02-28T18:47:06.959Z,20.20
2023-02-28T18:49:34.921Z,18.57
2023-02-28T18:52:01.504Z,18.10
2023-02-28T18:54:28.207Z,21.17
2023-02-28T18:56:56.295Z,20.60
2023-02-28T18:59:22.812Z,25.77
2023-02-28T19:01:49.280Z,19.50
2023-02-28T19:04:16.433Z,19.00
2023-02-28T19:06:43.110Z,20.10
2023-02-28T19:09:10.308Z,23.80
2023-02-28T19:11:36.963Z,21.17
2023-02-28T19:14:03.576Z,22.00
2023-02-28T19:16:30.440Z,20.47
2023-02-28T19:18:57.200Z,21.13
2023-02-28T19:21:25.506Z,22.70
2023-02-28T19:23:52.051Z,20.97
2023-02-28T19:26:21.265Z,22.27
2023-02-28T19:28:48.271Z,18.70
2023-02-28T19:31:16.583Z,18.63
2023-02-28T19:33:43.330Z,25.07
2023-02-28T19:36:11.750Z,21.30
2023-02-28T19:38:39.009Z,20.60
2023-02-28T19:41:08.542Z,22.27
2023-02-28T19:43:35.069Z,20.97
2023-02-28T19:46:01.795Z,20.03
2023-02-28T19:48:28.459Z,22.00
2023-02-28T19:50:59.136Z,19.40
2023-02-28T19:53:26.151Z,18.57
2023-02-28T19:55:53.783Z,18.13
2023-02-28T19:58:21.178Z,22.27
2023-02-28T20:00:48.035Z,23.13
2023-02-28T20:03:14.609Z,21.70
2023-02-28T20:05:41.088Z,19.10
2023-02-28T20:08:07.921Z,18.43
2023-02-28T20:10:34.886Z,21.33
2023-02-28T20:13:01.990Z,17.90
2023-02-28T20:15:28.678Z,17.87
2023-02-28T20:17:56.621Z,19.60
2023-02-28T20:20:23.106Z,17.20
2023-02-28T20:22:49.770Z,17.63
2023-02-28T20:25:16.337Z,18.00
2023-02-28T20:27:43.425Z,19.67
2023-02-28T20:30:11.763Z,19.33
2023-02-28T20:32:38.919Z,17.13
2023-02-28T20:35:06.311Z,17.77
2023-02-28T20:37:32.732Z,17.37
2023-02-28T20:39:59.245Z,18.37
2023-02-28T20:42:25.689Z,17.90
2023-02-28T20:44:52.100Z,17.27
2023-02-28T20:47:19.159Z,18.33
2023-02-28T20:49:45.494Z,17.17
2023-02-28T20:52:11.886Z,17.90
2023-02-28T20:54:38.324Z,17.90
2023-02-28T20:57:04.824Z,19.00
2023-02-28T20:59:31.506Z,18.13
2023-02-28T21:01:57.948Z,19.57
2023-02-28T21:04:25.102Z,18.23
2023-02-28T21:06:51.512Z,17.70
2023-02-28T21:09:18.017Z,16.80
2023-02-28T21:11:45.175Z,18.87
2023-02-28T21:14:14.409Z,17.30
2023-02-28T21:16:41.245Z,17.30
2023-02-28T21:19:09.416Z,20.57
2023-02-28T21:21:38.399Z,18.57
2023-02-28T21:24:05.557Z,16.77
2023-02-28T21:26:32.488Z,17.60
2023-02-28T21:29:01.226Z,15.73
2023-02-28T21:31:30.401Z,17.37
2023-02-28T21:33:58.638Z,17.30
2023-02-28T21:36:32.089Z,19.13
2023-02-28T21:39:01.755Z,16.73
2023-02-28T21:41:28.263Z,17.33
2023-02-28T21:43:55.529Z,18.27
2023-02-28T21:46:24.349Z,15.87
2023-02-28T21:48:51.144Z,16.87
2023-02-28T21:51:19.240Z,20.77
2023-02-28T21:53:46.058Z,17.00
2023-02-28T21:56:14.765Z,15.93
2023-02-28T21:58:41.295Z,18.50
2023-02-28T22:01:09.984Z,17.07
2023-02-28T22:03:36.765Z,19.43
2023-02-28T22:06:11.776Z,17.60
2023-02-28T22:08:39.033Z,17.27
2023-02-28T22:11:05.934Z,19.37
2023-02-28T22:13:33.188Z,17.83
2023-02-28T22:16:02.147Z,17.37
2023-02-28T22:18:28.528Z,18.17
2023-02-28T22:20:55.503Z,17.37
2023-02-28T22:23:21.949Z,16.23
2023-02-28T22:25:48.578Z,16.77
2023-02-28T22:28:14.948Z,16.20
2023-02-28T22:30:42.052Z,17.63
2023-02-28T22:33:08.451Z,16.87
2023-02-28T22:35:34.844Z,18.40
2023-02-28T22:38:01.321Z,17.20
2023-02-28T22:40:27.858Z,18.97
2023-02-28T22:42:54.253Z,16.87
2023-02-28T22:45:20.641Z,17.23
2023-02-28T22:47:48.481Z,16.33
2023-02-28T22:50:15.720Z,16.20
2023-02-28T22:52:42.153Z,17.93
2023-02-28T22:55:10.512Z,17.90
2023-02-28T22:57:37.189Z,17.00
2023-02-28T23:00:07.236Z,17.67
2023-02-28T23:02:34.328Z,18.20
2023-02-28T23:05:01.478Z,17.17
2023-02-28T23:07:27.980Z,17.10
2023-02-28T23:09:54.368Z,17.23
2023-02-28T23:12:26.159Z,21.20
2023-02-28T23:14:53.272Z,16.90
2023-02-28T23:17:19.647Z,17.47
2023-02-28T23:19:46.125Z,16.97
2023-02-28T23:22:13.311Z,17.90
2023-02-28T23:24:39.795Z,19.33
2023-02-28T23:27:06.566Z,17.67
2023-02-28T23:29:34.119Z,17.83
2023-02-28T23:32:00.977Z,18.90
2023-02-28T23:34:29.573Z,16.77
2023-02-28T23:36:58.797Z,16.70
2023-02-28T23:39:26.993Z,17.90
2023-02-28T23:41:54.347Z,16.40
2023-02-28T23:44:20.984Z,17.13
2023-02-28T23:46:50.667Z,17.67
2023-02-28T23:49:19.247Z,17.40
2023-02-28T23:51:45.706Z,16.20
2023-02-28T23:54:12.177Z,17.53
2023-02-28T23:56:39.307Z,18.27
2023-02-28T23:59:06.031Z,16.63
